Airfield :
LOGIN :

Register | Disclaimer

   EN    FR    IT 

 










Legend :    VFR   Marginal VFR   IFR   Intensive IFR   Very Intensive IFR
Visi :
Ceiling :
>= 8 km
>= 3000ft
5 to 8 km
1000 to 3000 ft
1500m to 5 km
500 to 1000 ft
800 to 1500m
200 to 500 ft
< 800m
< 200 ft
Symbols :   Thunderstorms  Fog  Heavy snow  Heavy precipitations  Wind > 20 kt
SIGMETs :     Misc.  Thunderstorms  Icing  Turbulence  Mountain Waves  Volcanic Ashes







- Airport Elevation : 1276 ft
- IATA code : STR


EDDS - Stuttgart

CURRENT METAR :
  • 181550Z 26010KT 220V280 9999 -SHRA FEW016 BKN024 07/05 Q1002 RERA NOSIG

EXPIRED METARs :
  • 181520Z 26016KT 9999 SHRA BKN020TCU 07/05 Q1002 BECMG NSW
  • 181450Z 24015G26KT 210V270 9999 -SHRA BKN021 08/05 Q1002 NOSIG
  • 181420Z 24017G29KT 190V260 9999 -SHRA BKN022 08/05 Q1001 NOSIG
  • 181350Z 23016G29KT 200V260 9999 -SHRA BKN022 07/05 Q1001 TEMPO 22020G40KT
  • 181320Z 23022G36KT 200V260 9999 -SHRA BKN028 08/04 Q1001 TEMPO 22020G40KT
  • 181250Z 22017G31KT 190V260 9999 -SHRA BKN027 08/04 Q1001 TEMPO 22020G40KT

TAF TAF EDDS
Valid from the 18 at 12:00 until the 19 at 12:00 UTC


181100Z 1812/1912 22015G30KT 9999 BKN020
TEMPO 1812/1816 24020G35KT SHRA BKN015CB
PROB40
TEMPO 1812/1815 24025G40KT
BECMG 1816/1818 24015KT
TEMPO 1816/1818 29015G30KT SHRA BKN015CB
BECMG 1818/1820 25010KT
TEMPO 1818/1903 RA BKN012
PROB40
TEMPO 1903/1912 2500 SHSNRA BKN008CB
No reported NOTAMs for that airfield.
1 SIGMET reported for the Langen FIR (EDGG) :
 
Severe turbulence
EDGG SIGMET 5 VALID 181500/181700 EDZF
EDGG LANGEN FIR SEV TURB FCST NE OF LINE N4920 E01045 - N5215 E00740 SFC/FL060 MOV E 30KT NC=



MET'MAP, your aeronautical weather chart ! - Copyright ORBIFLY December 2007 - Disclaimer

ORBIFLY MET'MAP TEAM :

Programming & Development : Alexandra Zaïnal
Concept & Development : Baudouin d'Aumeries
Co-Development & Prog : Marc-Olivier Méhu
Technical & hardware support : Manuel Goepfert

Contact : metmap@orbifly.com




SOURCES & CREDITS :

   NOAA